createdAt,value
2022-11-05T06:02:44.028Z,40.55
2022-11-05T06:05:11.418Z,35.10
2022-11-05T06:07:37.982Z,34.80
2022-11-05T06:10:05.495Z,39.85
2022-11-05T06:12:32.167Z,37.05
2022-11-05T06:14:59.304Z,33.88
2022-11-05T06:17:25.826Z,33.40
2022-11-05T06:19:52.654Z,33.65
2022-11-05T06:22:19.833Z,31.83
2022-11-05T06:24:46.454Z,31.10
2022-11-05T06:27:13.641Z,32.25
2022-11-05T06:29:40.187Z,34.35
2022-11-05T06:32:07.383Z,38.97
2022-11-05T06:34:33.902Z,37.42
2022-11-05T06:37:01.077Z,44.75
2022-11-05T06:39:27.636Z,38.42
2022-11-05T06:42:17.142Z,42.55
2022-11-05T06:44:41.596Z,38.28
2022-11-05T06:47:08.764Z,39.50
2022-11-05T06:49:35.298Z,46.15
2022-11-05T06:52:02.465Z,40.75
2022-11-05T06:54:29.082Z,42.03
2022-11-05T06:56:56.242Z,45.65
2022-11-05T06:59:22.782Z,44.42
2022-11-05T07:01:49.996Z,43.58
2022-11-05T07:04:16.553Z,44.88
2022-11-05T07:06:43.687Z,43.25
2022-11-05T07:09:10.267Z,42.70
2022-11-05T07:11:37.415Z,50.00
2022-11-05T07:14:04.023Z,49.42
2022-11-05T07:16:31.195Z,53.20
2022-11-05T07:18:57.779Z,52.42
2022-11-05T07:21:25.140Z,49.67
2022-11-05T07:23:51.737Z,53.67
2022-11-05T07:26:18.933Z,56.72
2022-11-05T07:28:45.570Z,56.88
2022-11-05T07:31:12.454Z,56.65
2022-11-05T07:33:39.360Z,57.35
2022-11-05T07:36:06.244Z,65.93
2022-11-05T07:38:33.394Z,74.63
2022-11-05T07:41:00.462Z,81.53
2022-11-05T07:43:27.624Z,69.63
2022-11-05T07:45:54.235Z,72.45
2022-11-05T07:48:21.456Z,75.88
2022-11-05T07:50:51.444Z,81.97
2022-11-05T07:53:20.889Z,75.43
2022-11-05T07:55:47.499Z,82.55
2022-11-05T07:58:14.847Z,85.45
2022-11-05T08:00:41.607Z,79.15
2022-11-05T08:03:15.495Z,85.85
2022-11-05T08:05:45.865Z,74.57
2022-11-05T08:08:16.752Z,81.45
2022-11-05T08:10:43.427Z,78.78
2022-11-05T08:13:12.276Z,77.32
2022-11-05T08:15:39.218Z,84.53
2022-11-05T08:18:13.228Z,77.75
2022-11-05T08:20:41.236Z,83.10
2022-11-05T08:23:09.641Z,82.50
2022-11-05T08:25:36.643Z,90.40
2022-11-05T08:28:07.724Z,89.63
2022-11-05T08:30:35.266Z,92.45
2022-11-05T08:33:05.133Z,95.15
2022-11-05T08:35:31.921Z,70.15
2022-11-05T08:38:00.902Z,66.63
2022-11-05T08:40:27.884Z,68.97
2022-11-05T08:42:57.792Z,62.92
2022-11-05T08:47:58.107Z,72.03
2022-11-05T08:50:24.807Z,75.65
2022-11-05T08:52:52.028Z,70.43
2022-11-05T08:55:19.006Z,77.57
2022-11-05T08:57:46.591Z,80.43
2022-11-05T09:00:14.756Z,75.28
2022-11-05T09:02:42.395Z,75.47
2022-11-05T09:05:09.167Z,71.90
2022-11-05T09:07:37.567Z,71.40
2022-11-05T09:10:04.543Z,73.20
2022-11-05T09:12:31.111Z,62.42
2022-11-05T09:14:58.266Z,64.18
2022-11-05T09:17:24.907Z,64.68
2022-11-05T09:19:52.093Z,60.38
2022-11-05T09:22:18.642Z,55.67
2022-11-05T09:24:45.820Z,61.25
2022-11-05T09:27:14.559Z,60.25
2022-11-05T09:29:42.361Z,59.00
2022-11-05T09:32:09.236Z,60.17
2022-11-05T09:34:36.558Z,56.25
2022-11-05T09:37:03.586Z,64.65
2022-11-05T09:39:30.720Z,57.05
2022-11-05T09:42:04.490Z,61.13
2022-11-05T09:45:13.505Z,57.85
2022-11-05T09:48:04.935Z,54.70
2022-11-05T09:50:43.226Z,50.50
2022-11-05T09:53:14.614Z,46.40
2022-11-05T09:55:45.185Z,56.28
2022-11-05T09:58:15.699Z,48.80
2022-11-05T10:00:43.747Z,50.28
2022-11-05T10:03:16.471Z,54.35
2022-11-05T10:05:43.955Z,44.20
2022-11-05T10:08:22.657Z,46.90
2022-11-05T10:10:53.602Z,44.95
2022-11-05T10:14:02.273Z,43.80
2022-11-05T10:16:39.021Z,37.70
2022-11-05T10:19:13.726Z,38.45
2022-11-05T10:24:28.204Z,34.50
2022-11-05T10:26:55.834Z,36.40
2022-11-05T10:29:29.552Z,36.35
2022-11-05T10:31:58.315Z,39.10
2022-11-05T10:34:29.639Z,33.72
2022-11-05T10:36:56.691Z,30.95
2022-11-05T10:39:25.520Z,26.80
2022-11-05T10:42:00.902Z,33.72
2022-11-05T10:44:34.893Z,35.05
2022-11-05T10:47:24.376Z,33.80
2022-11-05T10:49:58.822Z,30.75
2022-11-05T10:52:31.794Z,28.92
2022-11-05T10:55:15.310Z,27.98
2022-11-05T10:57:42.495Z,20.27
2022-11-05T11:00:18.916Z,24.73
2022-11-05T11:02:53.831Z,22.30
2022-11-05T11:05:31.492Z,23.27
2022-11-05T11:08:02.162Z,19.48
2022-11-05T11:10:32.943Z,22.98
2022-11-05T11:12:59.843Z,21.23
2022-11-05T11:15:35.370Z,20.83
2022-11-05T11:18:32.447Z,26.42
2022-11-05T11:21:14.107Z,21.90
2022-11-05T11:23:42.994Z,25.02
2022-11-05T11:26:12.773Z,26.05
2022-11-05T11:28:42.810Z,25.30
2022-11-05T11:31:15.937Z,23.65
2022-11-05T11:33:47.649Z,19.20
2022-11-05T11:36:18.780Z,17.42
2022-11-05T11:38:46.087Z,19.42
2022-11-05T11:41:19.238Z,24.90
2022-11-05T11:43:46.162Z,24.77
2022-11-05T11:46:19.864Z,19.42
2022-11-05T11:48:48.102Z,27.23
2022-11-05T11:51:32.811Z,17.40
2022-11-05T11:54:00.726Z,23.20
2022-11-05T11:56:29.420Z,21.20
2022-11-05T11:59:00.834Z,17.75
2022-11-05T12:01:46.948Z,18.08
2022-11-05T12:04:30.957Z,21.00
2022-11-05T12:07:34.830Z,14.70
2022-11-05T12:10:14.659Z,15.43
2022-11-05T12:12:57.077Z,18.65
2022-11-05T12:15:54.775Z,16.45
2022-11-05T12:18:26.055Z,14.95
2022-11-05T12:21:06.768Z,13.50
2022-11-05T12:23:54.405Z,18.88
2022-11-05T12:26:35.921Z,15.90
2022-11-05T12:29:24.367Z,21.42
2022-11-05T12:32:09.633Z,19.03
2022-11-05T12:34:48.711Z,15.90
2022-11-05T12:37:16.107Z,13.32
2022-11-05T12:39:53.937Z,13.00
2022-11-05T12:42:39.088Z,16.98
2022-11-05T12:45:30.868Z,14.68
2022-11-05T12:48:08.827Z,10.80
2022-11-05T12:51:05.448Z,20.05
2022-11-05T12:53:37.961Z,10.30
2022-11-05T12:56:21.474Z,13.35
2022-11-05T12:58:54.962Z,10.73
2022-11-05T13:01:33.281Z,11.32
2022-11-05T13:04:06.569Z,14.18
2022-11-05T13:06:40.656Z,10.23
2022-11-05T13:09:11.307Z,11.98
2022-11-05T13:11:54.530Z,13.68
2022-11-05T13:14:44.061Z,11.05
2022-11-05T13:17:34.450Z,14.88
2022-11-05T13:20:17.784Z,14.55
2022-11-05T13:22:49.587Z,14.48
2022-11-05T13:25:25.570Z,12.73
2022-11-05T13:28:14.446Z,12.52
2022-11-05T13:30:51.998Z,10.27
2022-11-05T13:33:18.744Z,11.45
2022-11-05T13:36:26.972Z,12.73
2022-11-05T13:39:09.332Z,14.75
2022-11-05T13:42:02.554Z,13.88
2022-11-05T13:45:06.405Z,9.50
2022-11-05T13:48:08.712Z,12.73
2022-11-05T13:50:46.897Z,14.30
2022-11-05T13:53:55.775Z,10.30
2022-11-05T13:56:40.379Z,11.75
2022-11-05T13:59:35.299Z,14.65
2022-11-05T14:02:14.956Z,11.20
2022-11-05T14:05:01.234Z,16.38
2022-11-05T14:07:45.328Z,14.80
2022-11-05T14:10:26.392Z,12.65
2022-11-05T14:12:55.553Z,14.35
2022-11-05T14:15:33.455Z,15.00
2022-11-05T14:18:18.465Z,18.58
2022-11-05T14:21:00.615Z,17.58
2022-11-05T14:23:31.531Z,13.57
2022-11-05T14:26:28.476Z,18.58
2022-11-05T14:29:04.947Z,22.88
2022-11-05T14:32:02.346Z,12.50
2022-11-05T14:34:41.942Z,10.77
2022-11-05T14:37:11.809Z,17.50
2022-11-05T14:39:40.711Z,12.07
2022-11-05T14:42:33.270Z,20.50
2022-11-05T14:45:23.491Z,14.15
2022-11-05T14:47:56.998Z,14.25
2022-11-05T14:50:41.086Z,20.13
2022-11-05T14:53:30.284Z,12.38
2022-11-05T14:56:11.835Z,10.38
2022-11-05T14:58:43.299Z,10.20
2022-11-05T15:01:16.256Z,10.02
2022-11-05T15:03:46.298Z,11.82
2022-11-05T15:06:27.125Z,14.27
2022-11-05T15:09:16.363Z,13.55
2022-11-05T15:11:58.388Z,15.18
2022-11-05T15:14:39.374Z,18.90
2022-11-05T15:17:17.593Z,13.70
2022-11-05T15:19:45.991Z,12.18
2022-11-05T15:22:28.900Z,18.77
2022-11-05T15:24:56.324Z,13.32
2022-11-05T15:27:48.295Z,14.27
2022-11-05T15:30:16.784Z,15.27
2022-11-05T15:32:43.395Z,17.00
2022-11-05T15:35:24.980Z,16.55
2022-11-05T15:37:57.319Z,32.15
2022-11-05T15:40:30.519Z,25.08
2022-11-05T15:46:22.634Z,35.58
2022-11-05T15:48:52.734Z,16.58
2022-11-05T15:51:22.388Z,15.85
2022-11-05T15:56:48.464Z,14.55
2022-11-05T15:59:23.544Z,13.43
2022-11-05T16:02:26.142Z,15.38
2022-11-05T16:04:53.017Z,15.00
2022-11-05T16:07:21.185Z,11.82
2022-11-05T16:10:25.062Z,11.18
2022-11-05T16:12:52.661Z,8.52
2022-11-05T16:15:23.180Z,12.15
2022-11-05T16:17:53.601Z,9.70
2022-11-05T16:20:35.127Z,10.77
2022-11-05T16:23:08.601Z,9.45
2022-11-05T16:25:41.305Z,10.15
2022-11-05T16:28:23.966Z,8.40
2022-11-05T16:31:05.129Z,8.50
2022-11-05T16:33:38.123Z,11.23
2022-11-05T16:36:05.174Z,13.90
2022-11-05T16:38:31.991Z,7.28
2022-11-05T16:41:00.214Z,11.90
2022-11-05T16:43:27.487Z,11.23
2022-11-05T16:46:01.047Z,19.08
2022-11-05T16:48:29.513Z,9.90
2022-11-05T16:50:56.205Z,10.25
2022-11-05T16:53:23.369Z,11.15
2022-11-05T16:55:50.079Z,13.48
2022-11-05T16:58:23.316Z,14.95
2022-11-05T17:00:51.538Z,15.63
2022-11-05T17:03:21.803Z,10.43
2022-11-05T17:05:48.496Z,14.05
2022-11-05T17:08:16.116Z,10.18
2022-11-05T17:10:42.898Z,12.88
2022-11-05T17:13:15.192Z,12.07
2022-11-05T17:15:43.717Z,11.48
2022-11-05T17:18:17.090Z,13.47
2022-11-05T17:20:50.746Z,9.35
2022-11-05T17:23:21.768Z,9.05
2022-11-05T17:25:53.689Z,11.45
2022-11-05T17:28:21.942Z,11.45
2022-11-05T17:30:52.176Z,9.77
2022-11-05T17:33:23.152Z,11.18
2022-11-05T17:35:50.855Z,13.32
2022-11-05T17:38:18.785Z,9.43
2022-11-05T17:40:45.733Z,12.20
2022-11-05T17:43:13.184Z,7.03
2022-11-05T17:45:48.472Z,11.80
2022-11-05T17:48:16.728Z,12.63
2022-11-05T17:50:48.427Z,10.50
2022-11-05T17:53:17.417Z,9.02
2022-11-05T17:55:45.951Z,9.63
2022-11-05T17:58:12.821Z,10.80
2022-11-05T18:00:40.370Z,10.32
2022-11-05T18:03:07.398Z,7.45
2022-11-05T18:05:34.657Z,9.10
2022-11-05T18:08:02.241Z,8.63
2022-11-05T18:10:29.033Z,7.75
2022-11-05T18:12:55.997Z,9.50
2022-11-05T18:15:22.860Z,8.27
2022-11-05T18:17:49.901Z,6.22
2022-11-05T18:20:19.451Z,10.35
2022-11-05T18:22:49.892Z,9.13
2022-11-05T18:25:16.871Z,8.40
2022-11-05T18:27:44.407Z,8.23
2022-11-05T18:30:14.001Z,13.23
2022-11-05T18:35:08.562Z,9.43
2022-11-05T18:37:38.091Z,11.55
2022-11-05T18:40:08.466Z,9.10
2022-11-05T18:42:35.774Z,10.00
2022-11-05T18:45:03.472Z,10.32
2022-11-05T18:47:32.412Z,14.55
2022-11-05T18:49:59.756Z,10.70
2022-11-05T18:52:28.479Z,12.70
2022-11-05T18:54:55.011Z,10.53
2022-11-05T18:57:22.211Z,9.27
2022-11-05T18:59:50.488Z,12.35
2022-11-05T19:02:18.525Z,10.77
2022-11-05T19:05:06.608Z,11.15
2022-11-05T19:07:32.390Z,11.13
2022-11-05T19:10:00.531Z,9.85
2022-11-05T19:12:27.752Z,14.57
2022-11-05T19:14:59.360Z,8.55
2022-11-05T19:17:29.242Z,10.90
2022-11-05T19:19:55.815Z,9.88
2022-11-05T19:22:23.014Z,7.28
2022-11-05T19:24:49.731Z,12.35
2022-11-05T19:27:16.772Z,10.75
2022-11-05T19:29:43.342Z,9.90
2022-11-05T19:32:10.052Z,11.93
2022-11-05T19:34:36.924Z,11.43
2022-11-05T19:37:07.510Z,14.23
2022-11-05T19:39:35.116Z,11.48
2022-11-05T19:42:04.108Z,8.75
2022-11-05T19:44:31.961Z,7.10
2022-11-05T19:46:59.381Z,9.45
2022-11-05T19:49:28.065Z,11.45
2022-11-05T19:51:55.013Z,9.33
2022-11-05T19:54:21.763Z,11.02
2022-11-05T19:56:51.624Z,9.73
2022-11-05T19:59:18.478Z,9.50
2022-11-05T20:01:45.437Z,8.90
2022-11-05T20:04:12.286Z,9.90
2022-11-05T20:06:40.893Z,13.32
2022-11-05T20:09:22.045Z,7.18
2022-11-05T20:11:51.307Z,11.93
2022-11-05T20:14:17.991Z,10.35
2022-11-05T20:16:46.408Z,10.23
2022-11-05T20:19:15.718Z,8.80
2022-11-05T20:21:43.082Z,11.40
2022-11-05T20:24:12.287Z,11.90
2022-11-05T20:26:40.396Z,8.43
2022-11-05T20:29:09.798Z,9.02
2022-11-05T20:31:36.400Z,6.40
2022-11-05T20:34:04.158Z,10.43
2022-11-05T20:36:30.771Z,12.25
2022-11-05T20:38:58.428Z,11.90
2022-11-05T20:41:26.138Z,8.27
2022-11-05T20:43:57.232Z,13.48
2022-11-05T20:46:24.122Z,9.48
2022-11-05T20:48:51.767Z,11.00
2022-11-05T20:51:20.702Z,12.50
2022-11-05T20:53:48.413Z,10.23
2022-11-05T20:56:20.183Z,9.57
2022-11-05T20:58:47.702Z,9.35
2022-11-05T21:01:16.453Z,9.15
2022-11-05T21:03:45.417Z,11.00
2022-11-05T21:06:12.522Z,13.63
2022-11-05T21:08:40.493Z,12.63
2022-11-05T21:11:07.664Z,14.40
2022-11-05T21:13:35.276Z,12.38
2022-11-05T21:16:04.390Z,9.30
2022-11-05T21:18:33.594Z,14.02
2022-11-05T21:21:04.249Z,14.25
2022-11-05T21:23:31.454Z,14.05
2022-11-05T21:25:58.089Z,10.20
2022-11-05T21:28:25.339Z,11.13
